Time;durP1;ratioP1;P1;durP2;ratioP2;P2;SDS_P1;SDS_P2;PMS_P1;PMS_P2;Temp;Humidity;BMP_temperature;BMP_pressure;BME280_temperature;BME280_humidity;BME280_pressure;Samples;Min_cycle;Max_cycle;Signal;HPM_P1;HPM_P2
2022/04/23 00:01:54;;;;;;;;;;;12.00;99.90;;;;;;5093061;28;19969;-63
2022/04/23 00:04:20;;;;;;;;;;;11.90;99.90;;;;;;5094218;28;19923;-63
2022/04/23 00:06:45;;;;;;;;;;;11.80;99.90;;;;;;5094289;28;20312;-63
2022/04/23 00:09:11;;;;;;;;;;;11.80;99.90;;;;;;5093983;28;19915;-63
2022/04/23 00:11:36;;;;;;;;;;;11.80;99.90;;;;;;5093670;28;19951;-63
2022/04/23 00:14:02;;;;;;;;;;;11.70;99.90;;;;;;5093854;28;19966;-63
2022/04/23 00:16:28;;;;;;;;;;;11.70;99.90;;;;;;5094103;28;19920;-63
2022/04/23 00:18:53;;;;;;;;;;;11.70;99.90;;;;;;5092344;28;20271;-63
2022/04/23 00:21:19;;;;;;;;;;;11.60;99.90;;;;;;5093974;28;20316;-63
2022/04/23 00:23:47;;;;;;;;;;;11.70;99.90;;;;;;5093437;28;19927;-63
2022/04/23 00:26:13;;;;;;;;;;;11.60;99.90;;;;;;5093566;28;19916;-63
2022/04/23 00:28:38;;;;;;;;;;;11.60;99.90;;;;;;5093719;28;20011;-63
2022/04/23 00:31:05;;;;;;;;;;;11.60;99.90;;;;;;5093432;28;20024;-63
2022/04/23 00:33:32;;;;;;;;;;;11.60;99.90;;;;;;5093389;28;19939;-63
2022/04/23 00:35:58;;;;;;;;;;;11.50;99.90;;;;;;5093227;28;19916;-62
2022/04/23 00:38:24;;;;;;;;;;;11.50;99.90;;;;;;5093383;28;19920;-62
2022/04/23 00:40:50;;;;;;;;;;;11.50;99.90;;;;;;5093441;28;19951;-63
2022/04/23 00:43:29;;;;;;;;;;;11.40;99.90;;;;;;5093082;28;20426;-63
2022/04/23 00:45:55;;;;;;;;;;;11.40;99.90;;;;;;5093099;28;19923;-63
2022/04/23 00:48:21;;;;;;;;;;;11.40;99.90;;;;;;5093376;28;19923;-63
2022/04/23 00:50:55;;;;;;;;;;;11.40;99.90;;;;;;5092908;28;19924;-63
2022/04/23 00:53:21;;;;;;;;;;;11.30;99.90;;;;;;5092682;28;19923;-63
2022/04/23 00:55:47;;;;;;;;;;;11.30;99.90;;;;;;5091823;28;20002;-63
2022/04/23 00:58:16;;;;;;;;;;;11.30;99.90;;;;;;5093125;28;20007;-63
2022/04/23 01:00:42;;;;;;;;;;;11.30;99.90;;;;;;5092985;28;19916;-63
2022/04/23 01:03:08;;;;;;;;;;;11.30;99.90;;;;;;5092858;28;20417;-63
2022/04/23 01:05:34;;;;;;;;;;;11.30;99.90;;;;;;5092917;28;19955;-63
2022/04/23 01:08:02;;;;;;;;;;;11.30;99.90;;;;;;5092745;28;19915;-63
2022/04/23 01:10:28;;;;;;;;;;;11.20;99.90;;;;;;5092837;28;19965;-63
2022/04/23 01:12:54;;;;;;;;;;;11.20;99.90;;;;;;5092776;28;20390;-63
2022/04/23 01:15:21;;;;;;;;;;;11.20;99.90;;;;;;5092859;28;19916;-63
2022/04/23 01:17:47;;;;;;;;;;;11.10;99.90;;;;;;5092634;28;19957;-63
2022/04/23 01:20:14;;;;;;;;;;;11.20;99.90;;;;;;5091408;28;20362;-63
2022/04/23 01:22:40;;;;;;;;;;;11.20;99.90;;;;;;5092423;28;19927;-63
2022/04/23 01:25:07;;;;;;;;;;;11.10;99.90;;;;;;5092616;28;20396;-63
2022/04/23 01:27:34;;;;;;;;;;;11.10;99.90;;;;;;5092704;28;19916;-63
2022/04/23 01:30:00;;;;;;;;;;;11.10;99.90;;;;;;5092661;28;20006;-63
2022/04/23 01:32:26;;;;;;;;;;;11.10;99.90;;;;;;5091159;28;19916;-63
2022/04/23 01:34:52;;;;;;;;;;;11.00;99.90;;;;;;5092413;28;19923;-63
2022/04/23 01:37:17;;;;;;;;;;;11.00;99.90;;;;;;5092581;28;19962;-63
2022/04/23 01:39:44;;;;;;;;;;;11.00;99.90;;;;;;5092678;28;20003;-62
2022/04/23 01:42:09;;;;;;;;;;;11.00;99.90;;;;;;5092540;28;19916;-63
2022/04/23 01:44:35;;;;;;;;;;;10.90;99.90;;;;;;5092587;28;19916;-63
2022/04/23 01:47:01;;;;;;;;;;;10.90;99.90;;;;;;5092456;28;19915;-62
2022/04/23 01:49:26;;;;;;;;;;;10.90;99.90;;;;;;5092451;28;19919;-63
2022/04/23 01:51:52;;;;;;;;;;;10.90;99.90;;;;;;5092407;28;19999;-63
2022/04/23 01:54:17;;;;;;;;;;;10.90;99.90;;;;;;5091006;28;19920;-63
2022/04/23 01:56:43;;;;;;;;;;;10.90;99.90;;;;;;5092472;28;19916;-63
2022/04/23 01:59:08;;;;;;;;;;;10.80;99.90;;;;;;5092295;28;19916;-63
2022/04/23 02:01:35;;;;;;;;;;;10.80;99.90;;;;;;5092252;28;19923;-63
2022/04/23 02:04:01;;;;;;;;;;;10.80;99.90;;;;;;5093172;28;19920;-63
2022/04/23 02:06:28;;;;;;;;;;;10.70;99.90;;;;;;5096333;28;19927;-63
2022/04/23 02:08:54;;;;;;;;;;;10.70;99.90;;;;;;5096299;28;20003;-63
2022/04/23 02:11:19;;;;;;;;;;;10.70;99.90;;;;;;5096696;28;20015;-63
2022/04/23 02:13:46;;;;;;;;;;;10.70;99.90;;;;;;5096606;28;19923;-62
2022/04/23 02:16:11;;;;;;;;;;;10.70;99.90;;;;;;5096062;28;19923;-62
2022/04/23 02:18:39;;;;;;;;;;;10.70;99.90;;;;;;5094818;28;20002;-62
2022/04/23 02:21:05;;;;;;;;;;;10.60;99.90;;;;;;5096273;28;19999;-63
2022/04/23 02:23:31;;;;;;;;;;;10.60;99.90;;;;;;5094540;28;20006;-62
2022/04/23 02:25:57;;;;;;;;;;;10.60;99.90;;;;;;5096138;28;20045;-62
2022/04/23 02:28:23;;;;;;;;;;;10.60;99.90;;;;;;5095881;28;19920;-62
2022/04/23 02:30:49;;;;;;;;;;;10.60;99.90;;;;;;5095743;28;19924;-62
2022/04/23 02:33:14;;;;;;;;;;;10.60;99.90;;;;;;5096036;28;19939;-62
2022/04/23 02:35:40;;;;;;;;;;;10.50;99.90;;;;;;5095618;28;20350;-62
2022/04/23 02:38:05;;;;;;;;;;;10.50;99.90;;;;;;5095870;28;19942;-63
2022/04/23 02:40:31;;;;;;;;;;;10.50;99.90;;;;;;5095725;28;20287;-62
2022/04/23 02:42:57;;;;;;;;;;;10.50;99.90;;;;;;5095486;28;19920;-63
2022/04/23 02:45:25;;;;;;;;;;;10.50;99.90;;;;;;5095514;28;20291;-63
2022/04/23 02:47:57;;;;;;;;;;;10.50;99.90;;;;;;5095422;28;19916;-62
2022/04/23 02:50:27;;;;;;;;;;;10.50;99.90;;;;;;5095420;28;20271;-62
2022/04/23 02:52:56;;;;;;;;;;;10.50;99.90;;;;;;5095389;28;19915;-62
2022/04/23 02:55:23;;;;;;;;;;;10.50;99.90;;;;;;5095472;28;19962;-63
2022/04/23 02:57:49;;;;;;;;;;;10.50;99.90;;;;;;5095344;28;19916;-63
2022/04/23 03:00:15;;;;;;;;;;;10.50;99.90;;;;;;5095294;28;20015;-62
2022/04/23 03:02:41;;;;;;;;;;;10.50;99.90;;;;;;5095308;28;20273;-62
2022/04/23 03:05:09;;;;;;;;;;;10.50;99.90;;;;;;5095508;28;20002;-62
2022/04/23 03:07:35;;;;;;;;;;;10.50;99.90;;;;;;5095312;28;19916;-62
2022/04/23 03:10:02;;;;;;;;;;;10.50;99.90;;;;;;5095403;28;19965;-62
2022/04/23 03:12:28;;;;;;;;;;;10.50;99.90;;;;;;5095027;28;19927;-63
2022/04/23 03:14:53;;;;;;;;;;;10.40;99.90;;;;;;5094978;28;19995;-62
2022/04/23 03:17:19;;;;;;;;;;;10.40;99.90;;;;;;5094256;28;20281;-62
2022/04/23 03:19:46;;;;;;;;;;;10.50;99.90;;;;;;5095415;28;20286;-62
2022/04/23 03:22:13;;;;;;;;;;;10.50;99.90;;;;;;5095028;28;19920;-62
2022/04/23 03:24:39;;;;;;;;;;;10.40;99.90;;;;;;5093927;28;19926;-63
2022/04/23 03:27:06;;;;;;;;;;;10.40;99.90;;;;;;5094998;28;19919;-62
2022/04/23 03:29:32;;;;;;;;;;;10.40;99.90;;;;;;5095188;28;20316;-63
2022/04/23 03:31:58;;;;;;;;;;;10.40;99.90;;;;;;5095344;28;19966;-63
2022/04/23 03:34:23;;;;;;;;;;;10.40;99.90;;;;;;5094941;28;20384;-63
2022/04/23 03:36:49;;;;;;;;;;;10.40;99.90;;;;;;5094632;28;19916;-63
2022/04/23 03:39:15;;;;;;;;;;;10.30;99.90;;;;;;5094636;28;19920;-62
2022/04/23 03:41:40;;;;;;;;;;;10.40;99.90;;;;;;5094579;28;19920;-62
2022/04/23 03:44:06;;;;;;;;;;;10.30;99.90;;;;;;5094409;28;19950;-62
2022/04/23 03:46:31;;;;;;;;;;;10.30;99.90;;;;;;5094159;28;19959;-62
2022/04/23 03:48:58;;;;;;;;;;;10.30;99.90;;;;;;5094624;28;19922;-62
2022/04/23 03:51:23;;;;;;;;;;;10.30;99.90;;;;;;5094137;28;19920;-62
2022/04/23 03:53:49;;;;;;;;;;;10.30;99.90;;;;;;5094411;28;19939;-63
2022/04/23 03:56:15;;;;;;;;;;;10.20;99.90;;;;;;5092998;28;20324;-62
2022/04/23 03:58:41;;;;;;;;;;;10.20;99.90;;;;;;5094501;28;19916;-63
2022/04/23 04:01:07;;;;;;;;;;;10.20;99.90;;;;;;5092922;28;20274;-62
2022/04/23 04:03:32;;;;;;;;;;;10.20;99.90;;;;;;5093985;28;19919;-62
2022/04/23 04:05:59;;;;;;;;;;;10.20;99.90;;;;;;5093928;28;19970;-62
2022/04/23 04:08:25;;;;;;;;;;;10.10;99.90;;;;;;5094208;28;19942;-62
2022/04/23 04:10:50;;;;;;;;;;;10.10;99.90;;;;;;5093883;28;19920;-63
2022/04/23 04:13:16;;;;;;;;;;;10.10;99.90;;;;;;5094411;28;20354;-63
2022/04/23 04:15:43;;;;;;;;;;;10.00;99.90;;;;;;5093879;28;19916;-62
2022/04/23 04:18:09;;;;;;;;;;;10.00;99.90;;;;;;5093753;28;20309;-62
2022/04/23 04:20:35;;;;;;;;;;;10.00;99.90;;;;;;5093659;28;19963;-62
2022/04/23 04:23:01;;;;;;;;;;;9.90;99.90;;;;;;5094043;28;19970;-62
2022/04/23 04:25:26;;;;;;;;;;;9.90;99.90;;;;;;5093727;28;19916;-62
2022/04/23 04:27:52;;;;;;;;;;;9.90;99.90;;;;;;5092863;28;20006;-62
2022/04/23 04:30:18;;;;;;;;;;;9.90;99.90;;;;;;5093907;28;19927;-62
2022/04/23 04:32:43;;;;;;;;;;;9.90;99.90;;;;;;5093548;28;20267;-62
2022/04/23 04:35:10;;;;;;;;;;;9.80;99.90;;;;;;5093594;28;20289;-62
2022/04/23 04:37:36;;;;;;;;;;;9.80;99.90;;;;;;5093416;28;19916;-62
2022/04/23 04:40:03;;;;;;;;;;;9.80;99.90;;;;;;5093563;28;19915;-62
2022/04/23 04:42:28;;;;;;;;;;;9.80;99.90;;;;;;5092135;28;20349;-62
2022/04/23 04:44:53;;;;;;;;;;;9.80;99.90;;;;;;5093680;28;20011;-62
2022/04/23 04:47:19;;;;;;;;;;;9.80;99.90;;;;;;5093650;28;19923;-62
2022/04/23 04:49:45;;;;;;;;;;;9.80;99.90;;;;;;5093798;28;19916;-63
2022/04/23 04:52:10;;;;;;;;;;;9.70;99.90;;;;;;5093015;28;20271;-62
2022/04/23 04:54:36;;;;;;;;;;;9.70;99.90;;;;;;5092095;28;19916;-62
2022/04/23 04:57:02;;;;;;;;;;;9.70;99.90;;;;;;5093171;28;19920;-62
2022/04/23 04:59:29;;;;;;;;;;;9.70;99.90;;;;;;5093904;28;19927;-62
2022/04/23 05:01:54;;;;;;;;;;;9.80;99.90;;;;;;5093580;28;19923;-62
2022/04/23 05:04:20;;;;;;;;;;;9.80;99.90;;;;;;5092796;28;19919;-63
2022/04/23 05:06:46;;;;;;;;;;;9.80;99.90;;;;;;5093098;28;19923;-62
2022/04/23 05:09:11;;;;;;;;;;;9.80;99.90;;;;;;5092924;28;20401;-62
2022/04/23 05:11:37;;;;;;;;;;;9.80;99.90;;;;;;5091443;28;20025;-62
2022/04/23 05:14:03;;;;;;;;;;;9.80;99.90;;;;;;5092631;28;19920;-62
2022/04/23 05:16:28;;;;;;;;;;;9.80;99.90;;;;;;5092801;28;20014;-62
2022/04/23 05:18:54;;;;;;;;;;;9.90;99.90;;;;;;5093261;28;20011;-62
2022/04/23 05:21:19;;;;;;;;;;;9.90;99.90;;;;;;5092691;28;19916;-61
2022/04/23 05:23:45;;;;;;;;;;;9.90;99.90;;;;;;5092307;28;20015;-61
2022/04/23 05:26:10;;;;;;;;;;;9.90;99.90;;;;;;5092481;28;19916;-61
2022/04/23 05:28:36;;;;;;;;;;;10.00;99.90;;;;;;5091037;28;19920;-61
2022/04/23 05:31:05;;;;;;;;;;;10.00;99.90;;;;;;5092569;28;20006;-61
2022/04/23 05:33:30;;;;;;;;;;;10.00;99.90;;;;;;5092507;28;19920;-61
2022/04/23 05:35:56;;;;;;;;;;;10.10;99.90;;;;;;5092330;28;20331;-61
2022/04/23 05:38:22;;;;;;;;;;;10.10;99.90;;;;;;5092699;28;19962;-61
2022/04/23 05:40:50;;;;;;;;;;;10.20;99.90;;;;;;5096608;28;20091;-61
2022/04/23 05:43:16;;;;;;;;;;;10.20;99.90;;;;;;5095059;28;19962;-61
2022/04/23 05:45:43;;;;;;;;;;;10.20;99.90;;;;;;5096476;28;19973;-61
2022/04/23 05:48:09;;;;;;;;;;;10.30;99.90;;;;;;5096432;28;19919;-61
2022/04/23 05:50:34;;;;;;;;;;;10.30;99.90;;;;;;5096423;28;20322;-61
2022/04/23 05:53:00;;;;;;;;;;;10.40;99.90;;;;;;5096385;28;19916;-61
2022/04/23 05:55:25;;;;;;;;;;;10.50;99.90;;;;;;5096337;28;19916;-61
2022/04/23 05:57:51;;;;;;;;;;;10.50;99.90;;;;;;5094845;28;20298;-61
2022/04/23 06:00:17;;;;;;;;;;;10.60;99.90;;;;;;5096417;28;19916;-61
2022/04/23 06:02:42;;;;;;;;;;;10.60;99.90;;;;;;5096138;28;19965;-61
2022/04/23 06:05:09;;;;;;;;;;;10.70;99.90;;;;;;5096111;28;20006;-61
2022/04/23 06:07:34;;;;;;;;;;;10.80;99.90;;;;;;5096296;28;20378;-61
2022/04/23 06:10:00;;;;;;;;;;;10.90;99.90;;;;;;5095975;28;20011;-61
2022/04/23 06:12:26;;;;;;;;;;;11.00;99.90;;;;;;5096306;28;19999;-61
2022/04/23 06:14:51;;;;;;;;;;;11.10;99.90;;;;;;5095871;28;20056;-61
2022/04/23 06:17:23;;;;;;;;;;;11.20;99.90;;;;;;5095876;28;20020;-61
2022/04/23 06:19:48;;;;;;;;;;;11.30;99.90;;;;;;5095754;28;19923;-61
2022/04/23 06:22:14;;;;;;;;;;;11.40;99.90;;;;;;5095695;28;19916;-61
2022/04/23 06:24:39;;;;;;;;;;;11.40;99.90;;;;;;5095626;28;19969;-61
2022/04/23 06:27:05;;;;;;;;;;;11.50;99.90;;;;;;5095952;28;19920;-61
2022/04/23 06:29:30;;;;;;;;;;;11.50;99.90;;;;;;5095587;28;19969;-61
2022/04/23 06:31:56;;;;;;;;;;;11.60;99.90;;;;;;5095613;28;19945;-60
2022/04/23 06:34:21;;;;;;;;;;;11.80;99.90;;;;;;5094440;28;20312;-61
2022/04/23 06:36:47;;;;;;;;;;;11.90;99.90;;;;;;5094335;28;20409;-61
2022/04/23 06:39:12;;;;;;;;;;;11.90;99.90;;;;;;5095431;28;20308;-61
2022/04/23 06:41:38;;;;;;;;;;;12.10;99.90;;;;;;5095364;28;19916;-61
2022/04/23 06:44:04;;;;;;;;;;;12.20;99.90;;;;;;5095425;28;19942;-61
2022/04/23 06:46:29;;;;;;;;;;;12.40;99.90;;;;;;5095423;28;19966;-61
2022/04/23 06:48:55;;;;;;;;;;;12.60;99.90;;;;;;5095382;28;20010;-61
2022/04/23 06:51:21;;;;;;;;;;;12.60;99.90;;;;;;5093835;28;19924;-61
2022/04/23 06:53:46;;;;;;;;;;;12.70;99.90;;;;;;5094119;28;20370;-61
2022/04/23 06:56:12;;;;;;;;;;;12.90;99.90;;;;;;5094217;28;20346;-61
2022/04/23 06:58:37;;;;;;;;;;;12.90;99.90;;;;;;5095224;28;19959;-61
2022/04/23 07:01:03;;;;;;;;;;;13.10;99.90;;;;;;5095040;28;19916;-61
2022/04/23 07:03:29;;;;;;;;;;;13.10;99.90;;;;;;5095022;28;20285;-61
2022/04/23 07:05:55;;;;;;;;;;;13.20;99.90;;;;;;5094890;28;19922;-61
2022/04/23 07:08:20;;;;;;;;;;;13.50;99.90;;;;;;5094680;28;19923;-61
2022/04/23 07:10:46;;;;;;;;;;;13.50;99.90;;;;;;5095100;28;19920;-61
2022/04/23 07:13:14;;;;;;;;;;;13.60;99.90;;;;;;5094961;28;19967;-61
2022/04/23 07:15:40;;;;;;;;;;;13.80;99.90;;;;;;5094829;28;19923;-61
2022/04/23 07:18:08;;;;;;;;;;;13.80;99.90;;;;;;5094867;28;19919;-61
2022/04/23 07:20:34;;;;;;;;;;;13.90;99.90;;;;;;5094531;28;19916;-61
2022/04/23 07:25:44;;;;;;;;;;;14.20;99.90;;;;;;5094375;28;19916;-64
2022/04/23 07:28:10;;;;;;;;;;;14.50;99.90;;;;;;5094493;28;19922;-63
2022/04/23 07:30:36;;;;;;;;;;;14.90;99.90;;;;;;5093253;28;19922;-64
2022/04/23 07:33:02;;;;;;;;;;;15.30;99.90;;;;;;5094363;28;19923;-64
2022/04/23 07:38:19;;;;;;;;;;;15.80;99.90;;;;;;5094478;28;19916;-63
2022/04/23 07:40:45;;;;;;;;;;;15.50;99.90;;;;;;5094254;28;19916;-63
2022/04/23 07:43:12;;;;;;;;;;;15.80;99.90;;;;;;5093954;28;20274;-63
2022/04/23 07:45:38;;;;;;;;;;;15.80;99.90;;;;;;5094089;28;20350;-63
2022/04/23 07:48:07;;;;;;;;;;;16.00;99.90;;;;;;5093982;28;20006;-63
2022/04/23 07:50:34;;;;;;;;;;;16.20;99.90;;;;;;5093987;28;20259;-63
2022/04/23 07:52:59;;;;;;;;;;;16.00;99.90;;;;;;5091661;28;19920;-64
2022/04/23 07:55:25;;;;;;;;;;;15.80;99.90;;;;;;5093797;28;19938;-63
2022/04/23 07:57:51;;;;;;;;;;;16.20;99.90;;;;;;5092973;28;19916;-63
2022/04/23 08:00:17;;;;;;;;;;;16.30;99.90;;;;;;5092123;28;19920;-65
2022/04/23 08:02:42;;;;;;;;;;;17.00;99.90;;;;;;5093392;28;19924;-64
2022/04/23 08:05:10;;;;;;;;;;;17.00;99.90;;;;;;5093706;28;20006;-64
2022/04/23 08:07:39;;;;;;;;;;;16.90;99.90;;;;;;5092487;28;19923;-64
2022/04/23 08:10:05;;;;;;;;;;;17.30;99.60;;;;;;5094148;28;20417;-64
2022/04/23 08:12:31;;;;;;;;;;;17.50;98.60;;;;;;5092581;28;19916;-64
2022/04/23 08:14:57;;;;;;;;;;;17.40;98.90;;;;;;5093972;28;19962;-63
2022/04/23 08:17:22;;;;;;;;;;;17.40;99.20;;;;;;5093817;28;19923;-63
2022/04/23 08:19:48;;;;;;;;;;;17.50;98.90;;;;;;5093517;28;19965;-64
2022/04/23 08:22:13;;;;;;;;;;;17.40;98.60;;;;;;5093066;28;20286;-63
2022/04/23 08:24:39;;;;;;;;;;;17.80;98.90;;;;;;5093342;28;19923;-63
2022/04/23 08:27:04;;;;;;;;;;;17.40;97.50;;;;;;5093276;28;19955;-59
2022/04/23 08:32:14;;;;;;;;;;;17.60;97.90;;;;;;5093380;28;19916;-59
2022/04/23 08:34:39;;;;;;;;;;;17.90;97.90;;;;;;5093204;28;19970;-59
2022/04/23 08:37:05;;;;;;;;;;;18.10;98.00;;;;;;5093124;28;19916;-59
2022/04/23 08:39:30;;;;;;;;;;;18.30;97.50;;;;;;5093150;28;20319;-59
2022/04/23 08:41:56;;;;;;;;;;;18.70;97.40;;;;;;5092919;28;19916;-59
2022/04/23 08:44:22;;;;;;;;;;;18.80;97.60;;;;;;5092838;28;19924;-59
2022/04/23 08:46:48;;;;;;;;;;;18.90;95.90;;;;;;5092944;28;19920;-59
2022/04/23 08:49:14;;;;;;;;;;;19.10;96.10;;;;;;5093161;28;19915;-59
2022/04/23 08:51:41;;;;;;;;;;;19.30;96.50;;;;;;5092816;28;19927;-59
2022/04/23 08:54:08;;;;;;;;;;;19.70;96.00;;;;;;5091437;28;20370;-59
2022/04/23 08:56:36;;;;;;;;;;;19.90;96.10;;;;;;5092644;28;19916;-59
2022/04/23 08:59:02;;;;;;;;;;;19.70;95.90;;;;;;5092778;28;19915;-59
2022/04/23 09:01:30;;;;;;;;;;;19.00;95.20;;;;;;5092787;28;19916;-59
2022/04/23 09:03:56;;;;;;;;;;;19.00;95.20;;;;;;5092713;28;19927;-59
2022/04/23 09:06:21;;;;;;;;;;;19.00;95.50;;;;;;5092637;28;19920;-59
2022/04/23 09:09:25;;;;;;;;;;;19.20;95.70;;;;;;5092723;28;19916;-59
2022/04/23 09:11:52;;;;;;;;;;;19.70;95.60;;;;;;5050107;28;19928;-59
2022/04/23 09:14:36;;;;;;;;;;;18.90;95.20;;;;;;5049759;28;20015;-59
2022/04/23 09:25:35;;;;;;;;;;;20.60;95.20;;;;;;5049957;28;20438;-59
2022/04/23 09:28:13;;;;;;;;;;;20.10;94.10;;;;;;5049747;28;19963;-59
2022/04/23 09:30:38;;;;;;;;;;;20.10;94.30;;;;;;5049833;28;19921;-59
2022/04/23 09:33:04;;;;;;;;;;;19.80;94.80;;;;;;5049949;28;20363;-59
2022/04/23 09:35:29;;;;;;;;;;;20.00;94.40;;;;;;5049776;28;19923;-59
2022/04/23 09:38:13;;;;;;;;;;;19.60;94.60;;;;;;5049748;28;19987;-60
2022/04/23 09:40:39;;;;;;;;;;;19.50;94.20;;;;;;5049829;28;19923;-59
2022/04/23 09:43:05;;;;;;;;;;;19.70;94.80;;;;;;5078865;28;20281;-59
2022/04/23 09:45:32;;;;;;;;;;;20.00;94.70;;;;;;5092138;28;20425;-59
2022/04/23 09:48:03;;;;;;;;;;;20.40;94.70;;;;;;5092064;28;19916;-59
2022/04/23 09:50:35;;;;;;;;;;;19.40;93.70;;;;;;5092235;28;19916;-59
2022/04/23 09:53:11;;;;;;;;;;;19.10;94.30;;;;;;5091616;28;19951;-59
2022/04/23 09:55:37;;;;;;;;;;;19.20;95.10;;;;;;5092052;28;19916;-59
2022/04/23 09:58:07;;;;;;;;;;;19.80;94.60;;;;;;5092314;28;19926;-59
2022/04/23 10:00:35;;;;;;;;;;;20.00;94.00;;;;;;5091903;28;20374;-59
2022/04/23 10:03:01;;;;;;;;;;;20.00;94.10;;;;;;5090695;28;19920;-59
2022/04/23 10:05:26;;;;;;;;;;;19.90;92.80;;;;;;5091970;28;19922;-59
2022/04/23 10:07:54;;;;;;;;;;;19.80;93.80;;;;;;5092190;28;19955;-59
2022/04/23 10:10:25;;;;;;;;;;;19.80;93.10;;;;;;5091859;28;19923;-61
2022/04/23 10:12:51;;;;;;;;;;;19.70;92.40;;;;;;5092036;28;20007;-60
2022/04/23 10:15:17;;;;;;;;;;;20.10;93.10;;;;;;5091895;28;19920;-60
2022/04/23 10:17:43;;;;;;;;;;;20.00;92.60;;;;;;5091892;28;19916;-60
2022/04/23 10:20:11;;;;;;;;;;;19.80;91.50;;;;;;5091699;28;19916;-59
2022/04/23 10:22:53;;;;;;;;;;;20.00;92.30;;;;;;5091802;28;19920;-59
2022/04/23 10:25:22;;;;;;;;;;;20.60;92.30;;;;;;5092287;28;19916;-60
2022/04/23 10:27:49;;;;;;;;;;;21.30;92.00;;;;;;5095805;28;20014;-60
2022/04/23 10:30:15;;;;;;;;;;;20.80;92.10;;;;;;5095723;28;20335;-61
2022/04/23 10:32:41;;;;;;;;;;;20.90;92.10;;;;;;5095634;28;20038;-60
2022/04/23 10:35:30;;;;;;;;;;;21.00;91.80;;;;;;5095761;28;20049;-61
2022/04/23 10:37:56;;;;;;;;;;;21.00;91.10;;;;;;5089941;28;19919;-61
2022/04/23 10:40:22;;;;;;;;;;;21.30;90.70;;;;;;5095527;28;20289;-61
2022/04/23 10:43:06;;;;;;;;;;;20.60;90.50;;;;;;5093592;28;19924;-61
2022/04/23 10:45:32;;;;;;;;;;;21.00;90.50;;;;;;5093613;28;20020;-62
2022/04/23 10:48:16;;;;;;;;;;;20.90;90.70;;;;;;5095550;28;20266;-62
2022/04/23 10:50:57;;;;;;;;;;;21.30;88.60;;;;;;5095243;28;20384;-60
2022/04/23 10:53:26;;;;;;;;;;;22.00;89.60;;;;;;5095348;28;20366;-59
2022/04/23 10:56:04;;;;;;;;;;;21.90;88.00;;;;;;5095735;28;20011;-59
2022/04/23 10:58:30;;;;;;;;;;;22.10;87.00;;;;;;5094132;28;19919;-59
2022/04/23 11:01:16;;;;;;;;;;;21.70;85.20;;;;;;5095431;28;20002;-59
2022/04/23 11:03:43;;;;;;;;;;;22.70;86.20;;;;;;5095090;28;20373;-59
2022/04/23 11:12:16;;;;;;;;;;;22.90;82.10;;;;;;5095075;28;20235;-58
2022/04/23 11:14:44;;;;;;;;;;;23.00;81.90;;;;;;5095372;28;19920;-59
2022/04/23 11:17:20;;;;;;;;;;;23.10;82.70;;;;;;5095341;28;19915;-59
2022/04/23 11:19:50;;;;;;;;;;;24.10;83.00;;;;;;5095191;28;19916;-59
2022/04/23 11:22:15;;;;;;;;;;;23.90;80.00;;;;;;5095077;28;19916;-59
2022/04/23 11:24:41;;;;;;;;;;;24.00;79.10;;;;;;5095129;28;20007;-59
2022/04/23 11:27:08;;;;;;;;;;;22.80;79.60;;;;;;5095041;28;19938;-59
2022/04/23 11:29:34;;;;;;;;;;;24.10;80.10;;;;;;5094942;28;20277;-59
2022/04/23 11:32:00;;;;;;;;;;;23.90;78.80;;;;;;5094721;28;19916;-59
2022/04/23 11:34:27;;;;;;;;;;;23.60;80.90;;;;;;5095015;28;19916;-59
2022/04/23 11:36:53;;;;;;;;;;;25.30;79.10;;;;;;5093859;28;20315;-60
2022/04/23 11:39:25;;;;;;;;;;;24.50;77.90;;;;;;5094525;28;19923;-59
2022/04/23 11:41:51;;;;;;;;;;;24.80;76.70;;;;;;5094572;28;19916;-60
2022/04/23 11:44:18;;;;;;;;;;;24.40;76.20;;;;;;5094686;28;19980;-59
2022/04/23 11:46:47;;;;;;;;;;;23.70;77.50;;;;;;5094386;28;19916;-60
2022/04/23 11:49:25;;;;;;;;;;;23.70;77.60;;;;;;5094592;28;19916;-59
2022/04/23 11:51:51;;;;;;;;;;;25.20;76.80;;;;;;5094225;28;19916;-58
2022/04/23 11:54:16;;;;;;;;;;;25.50;75.90;;;;;;5094090;28;19943;-59
2022/04/23 11:56:45;;;;;;;;;;;25.00;75.00;;;;;;5094688;28;20255;-59
2022/04/23 11:59:11;;;;;;;;;;;24.90;75.10;;;;;;5094288;28;20007;-59
2022/04/23 12:01:38;;;;;;;;;;;25.00;75.10;;;;;;5094377;28;19998;-59
2022/04/23 12:04:04;;;;;;;;;;;24.20;74.90;;;;;;5093973;28;19927;-59
2022/04/23 12:06:46;;;;;;;;;;;23.90;74.40;;;;;;5094284;28;19920;-60
2022/04/23 12:09:12;;;;;;;;;;;23.80;75.20;;;;;;5094114;28;19916;-60
2022/04/23 12:11:37;;;;;;;;;;;24.30;76.20;;;;;;5093854;28;20010;-60
2022/04/23 12:14:03;;;;;;;;;;;24.40;74.40;;;;;;5093520;28;20041;-60
2022/04/23 12:16:55;;;;;;;;;;;25.30;75.80;;;;;;5093729;28;20004;-60
2022/04/23 12:19:30;;;;;;;;;;;25.80;74.90;;;;;;5091760;28;20010;-60
2022/04/23 12:21:57;;;;;;;;;;;25.70;73.20;;;;;;5093613;28;19923;-61
2022/04/23 12:24:32;;;;;;;;;;;25.10;72.30;;;;;;5093525;28;19924;-61
2022/04/23 12:27:01;;;;;;;;;;;25.30;72.20;;;;;;5093385;28;19920;-61
2022/04/23 12:40:44;;;;;;;;;;;23.80;73.00;;;;;;5093386;28;19916;-59
2022/04/23 12:43:20;;;;;;;;;;;23.60;73.80;;;;;;5093345;28;20299;-60
2022/04/23 12:45:46;;;;;;;;;;;24.90;73.20;;;;;;5092270;28;20273;-60
2022/04/23 12:48:12;;;;;;;;;;;25.00;73.20;;;;;;5092792;28;19923;-60
2022/04/23 12:50:38;;;;;;;;;;;24.40;72.60;;;;;;5092932;28;19920;-60
2022/04/23 12:53:04;;;;;;;;;;;24.60;71.50;;;;;;5093116;28;19969;-60
2022/04/23 12:55:32;;;;;;;;;;;24.70;71.50;;;;;;5093303;28;19920;-60
2022/04/23 12:58:05;;;;;;;;;;;24.10;71.80;;;;;;5093371;28;19970;-60
2022/04/23 13:00:33;;;;;;;;;;;24.00;71.80;;;;;;5091614;28;19923;-59
2022/04/23 13:03:09;;;;;;;;;;;23.70;72.30;;;;;;5093017;28;20014;-58
2022/04/23 13:05:35;;;;;;;;;;;22.90;71.90;;;;;;5092952;28;19922;-58
2022/04/23 13:10:45;;;;;;;;;;;23.30;72.20;;;;;;5092931;28;19916;-59
2022/04/23 13:13:10;;;;;;;;;;;23.00;72.90;;;;;;5092748;28;19938;-60
2022/04/23 13:15:36;;;;;;;;;;;23.10;70.80;;;;;;5092823;28;19916;-58
2022/04/23 13:18:02;;;;;;;;;;;22.70;71.60;;;;;;5092838;28;20014;-59
2022/04/23 13:20:28;;;;;;;;;;;23.90;73.50;;;;;;5092998;28;19966;-59
2022/04/23 13:22:55;;;;;;;;;;;23.70;71.90;;;;;;5092793;28;19966;-60
2022/04/23 13:25:21;;;;;;;;;;;23.70;70.80;;;;;;5092609;28;19961;-59
2022/04/23 13:27:46;;;;;;;;;;;23.70;71.90;;;;;;5093001;28;19924;-60
2022/04/23 13:30:12;;;;;;;;;;;24.00;69.70;;;;;;5092903;28;20430;-59
2022/04/23 13:32:39;;;;;;;;;;;24.40;71.10;;;;;;5092463;28;19927;-59
2022/04/23 13:35:06;;;;;;;;;;;24.70;71.90;;;;;;5090485;28;19923;-60
2022/04/23 13:37:31;;;;;;;;;;;23.90;70.10;;;;;;5090939;28;19920;-59
2022/04/23 13:39:57;;;;;;;;;;;23.70;71.30;;;;;;5092127;28;19923;-60
2022/04/23 13:42:24;;;;;;;;;;;23.80;71.30;;;;;;5092924;28;20054;-59
2022/04/23 13:44:50;;;;;;;;;;;24.00;70.20;;;;;;5092781;28;19919;-59
2022/04/23 13:47:16;;;;;;;;;;;24.40;71.30;;;;;;5090723;28;20358;-59
2022/04/23 13:49:42;;;;;;;;;;;23.40;70.60;;;;;;5092307;28;19923;-60
2022/04/23 13:52:08;;;;;;;;;;;23.60;70.40;;;;;;5092672;28;20373;-60
2022/04/23 13:54:34;;;;;;;;;;;22.90;70.20;;;;;;5091636;28;19927;-59
2022/04/23 13:57:00;;;;;;;;;;;22.80;70.00;;;;;;5092678;28;19920;-59
2022/04/23 13:59:26;;;;;;;;;;;23.00;70.50;;;;;;5092462;28;19996;-59
2022/04/23 14:10:07;;;;;;;;;;;22.00;72.30;;;;;;5096477;28;20267;-59
2022/04/23 14:12:33;;;;;;;;;;;22.50;71.10;;;;;;5096095;28;19923;-59
2022/04/23 14:14:59;;;;;;;;;;;22.20;70.70;;;;;;5095624;28;20486;-59
2022/04/23 14:17:24;;;;;;;;;;;22.80;71.70;;;;;;5095878;28;20002;-59
2022/04/23 14:19:50;;;;;;;;;;;22.60;71.00;;;;;;5095627;28;20237;-59
2022/04/23 14:22:15;;;;;;;;;;;22.30;70.80;;;;;;5095628;28;19916;-58
2022/04/23 14:24:41;;;;;;;;;;;22.50;71.30;;;;;;5095732;28;19920;-58
2022/04/23 14:27:06;;;;;;;;;;;22.50;72.30;;;;;;5094794;28;19923;-59
2022/04/23 14:29:32;;;;;;;;;;;22.40;70.20;;;;;;5093973;28;19916;-59
2022/04/23 14:31:58;;;;;;;;;;;22.40;70.30;;;;;;5094649;28;19927;-59
2022/04/23 14:34:23;;;;;;;;;;;22.60;70.20;;;;;;5093262;28;19999;-59
2022/04/23 14:36:49;;;;;;;;;;;22.50;70.60;;;;;;5093855;28;20380;-58
2022/04/23 14:39:15;;;;;;;;;;;22.50;71.60;;;;;;5095746;28;19923;-59
2022/04/23 14:41:40;;;;;;;;;;;21.90;69.90;;;;;;5098659;28;19923;-59
2022/04/23 14:44:06;;;;;;;;;;;22.00;69.90;;;;;;5093719;28;19927;-59
2022/04/23 14:46:31;;;;;;;;;;;21.30;70.10;;;;;;5108020;28;19923;-59
2022/04/23 14:48:57;;;;;;;;;;;21.60;71.60;;;;;;5107645;27;20014;-59
2022/04/23 14:54:06;;;;;;;;;;;21.40;71.60;;;;;;5095663;28;20243;-59
2022/04/23 14:56:32;;;;;;;;;;;21.50;71.00;;;;;;5095512;28;19922;-59
2022/04/23 14:59:00;;;;;;;;;;;21.50;71.50;;;;;;5101493;28;19919;-59
2022/04/23 15:01:26;;;;;;;;;;;21.30;72.00;;;;;;5085221;28;19979;-59
2022/04/23 15:03:54;;;;;;;;;;;21.50;71.20;;;;;;5081408;28;20354;-59
2022/04/23 15:06:21;;;;;;;;;;;21.20;71.80;;;;;;5087055;28;19922;-59